createdAt,value
2022-11-13T00:01:25.463Z,7.03
2022-11-13T00:04:10.939Z,7.08
2022-11-13T00:06:59.381Z,7.15
2022-11-13T00:09:45.045Z,7.24
2022-11-13T00:12:30.391Z,7.23
2022-11-13T00:15:15.964Z,7.23
2022-11-13T00:18:03.010Z,7.25
2022-11-13T00:20:48.343Z,7.29
2022-11-13T00:23:35.168Z,7.29
2022-11-13T00:26:23.604Z,7.38
2022-11-13T00:29:09.404Z,7.50
2022-11-13T00:31:55.001Z,7.57
2022-11-13T00:34:48.343Z,7.69
2022-11-13T00:37:34.326Z,7.81
2022-11-13T00:40:19.801Z,7.86
2022-11-13T00:43:05.227Z,7.90
2022-11-13T00:45:51.087Z,8.02
2022-11-13T00:48:36.940Z,8.05
2022-11-13T00:51:22.635Z,8.05
2022-11-13T00:54:08.219Z,7.98
2022-11-13T00:56:53.843Z,7.91
2022-11-13T00:59:38.972Z,7.79
2022-11-13T01:02:24.392Z,7.67
2022-11-13T01:05:09.974Z,7.59
2022-11-13T01:07:55.287Z,7.61
2022-11-13T01:10:53.545Z,7.61
2022-11-13T01:13:46.764Z,7.56
2022-11-13T01:16:32.167Z,7.48
2022-11-13T01:19:17.489Z,7.47
2022-11-13T01:22:02.983Z,7.48
2022-11-13T01:24:48.164Z,7.54
2022-11-13T01:27:37.179Z,7.55
2022-11-13T01:30:22.565Z,7.55
2022-11-13T01:33:08.071Z,7.57
2022-11-13T01:36:00.860Z,7.61
2022-11-13T01:38:47.084Z,7.57
2022-11-13T01:41:34.384Z,7.55
2022-11-13T01:44:20.351Z,7.50
2022-11-13T01:47:05.828Z,7.43
2022-11-13T01:49:57.430Z,7.36
2022-11-13T01:52:43.157Z,7.35
2022-11-13T01:55:29.558Z,7.33
2022-11-13T01:58:16.776Z,7.32
2022-11-13T02:01:01.914Z,7.15
2022-11-13T02:03:47.190Z,6.97
2022-11-13T02:06:51.066Z,6.85
2022-11-13T02:09:52.285Z,6.80
2022-11-13T02:12:42.551Z,6.84
2022-11-13T02:15:32.001Z,6.79
2022-11-13T02:18:21.606Z,6.83
2022-11-13T02:21:26.320Z,6.94
2022-11-13T02:24:26.441Z,7.01
2022-11-13T02:27:48.289Z,6.99
2022-11-13T02:30:35.464Z,6.84
2022-11-13T02:33:31.422Z,6.44
2022-11-13T02:36:18.680Z,6.34
2022-11-13T02:39:06.888Z,6.30
2022-11-13T02:41:52.377Z,6.41
2022-11-13T02:44:37.549Z,6.49
2022-11-13T02:47:22.908Z,6.06
2022-11-13T02:50:10.416Z,6.20
2022-11-13T02:52:56.307Z,6.11
2022-11-13T02:55:41.791Z,6.05
2022-11-13T02:58:27.429Z,5.99
2022-11-13T03:01:13.240Z,6.01
2022-11-13T03:03:59.016Z,5.99
2022-11-13T03:06:44.351Z,6.08
2022-11-13T03:09:29.844Z,6.19
2022-11-13T03:12:15.304Z,6.29
2022-11-13T03:15:01.128Z,6.42
2022-11-13T03:17:46.541Z,6.54
2022-11-13T03:20:32.299Z,6.61
2022-11-13T03:23:17.714Z,6.51
2022-11-13T03:26:12.198Z,6.55
2022-11-13T03:28:57.703Z,6.49
2022-11-13T03:31:43.115Z,6.37
2022-11-13T03:34:28.485Z,6.40
2022-11-13T03:37:13.930Z,6.35
2022-11-13T03:39:59.292Z,6.27
2022-11-13T03:42:44.841Z,6.10
2022-11-13T03:45:30.287Z,6.18
2022-11-13T03:48:16.207Z,6.18
2022-11-13T03:51:01.979Z,5.95
2022-11-13T03:53:47.288Z,6.30
2022-11-13T03:56:32.884Z,6.52
2022-11-13T03:59:18.583Z,6.56
2022-11-13T04:02:04.243Z,6.42
2022-11-13T04:04:49.471Z,6.45
2022-11-13T04:07:34.958Z,6.51
2022-11-13T04:10:20.425Z,6.49
2022-11-13T04:13:05.686Z,6.35
2022-11-13T04:15:51.075Z,6.27
2022-11-13T04:18:36.366Z,6.16
2022-11-13T04:21:21.854Z,6.13
2022-11-13T04:24:07.372Z,6.06
2022-11-13T04:26:52.621Z,6.03
2022-11-13T04:29:38.014Z,6.07
2022-11-13T04:32:23.763Z,6.00
2022-11-13T04:35:10.127Z,5.97
2022-11-13T04:37:55.408Z,5.97
2022-11-13T04:40:41.387Z,6.16
2022-11-13T04:43:26.725Z,6.12
2022-11-13T04:46:12.160Z,5.74
2022-11-13T04:48:57.627Z,5.54
2022-11-13T04:51:43.096Z,5.43
2022-11-13T04:54:29.066Z,5.30
2022-11-13T04:57:15.005Z,5.24
2022-11-13T05:00:00.930Z,5.21
2022-11-13T05:02:46.410Z,5.07
2022-11-13T05:05:32.045Z,5.03
2022-11-13T05:08:17.673Z,4.91
2022-11-13T05:11:03.912Z,4.74
2022-11-13T05:13:48.920Z,4.71
2022-11-13T05:16:37.567Z,4.69
2022-11-13T05:19:23.020Z,4.78
2022-11-13T05:22:09.487Z,4.94
2022-11-13T05:24:55.194Z,5.06
2022-11-13T05:27:40.617Z,5.13
2022-11-13T05:30:26.175Z,5.12
2022-11-13T05:33:11.443Z,4.93
2022-11-13T05:36:05.156Z,4.95
2022-11-13T05:38:50.724Z,5.05
2022-11-13T05:41:35.830Z,5.29
2022-11-13T05:44:21.306Z,5.83
2022-11-13T05:47:06.766Z,6.17
2022-11-13T05:49:52.240Z,6.46
2022-11-13T05:52:37.728Z,6.69
2022-11-13T05:55:23.608Z,6.95
2022-11-13T05:58:09.141Z,7.22
2022-11-13T06:00:54.795Z,7.42
2022-11-13T06:03:40.657Z,7.56
2022-11-13T06:06:27.317Z,7.69
2022-11-13T06:09:17.319Z,7.87
2022-11-13T06:12:02.760Z,7.93
2022-11-13T06:14:48.484Z,8.07
2022-11-13T06:17:34.046Z,8.13
2022-11-13T06:20:19.349Z,8.29
2022-11-13T06:23:04.769Z,8.48
2022-11-13T06:25:50.372Z,8.65
2022-11-13T06:28:36.976Z,8.77
2022-11-13T06:31:25.052Z,8.87
2022-11-13T06:34:10.393Z,9.04
2022-11-13T06:36:55.473Z,9.10
2022-11-13T06:39:40.847Z,9.15
2022-11-13T06:42:26.944Z,8.93
2022-11-13T06:45:12.067Z,8.83
2022-11-13T06:47:57.478Z,8.57
2022-11-13T06:50:48.132Z,8.43
2022-11-13T06:53:34.597Z,8.48
2022-11-13T06:56:21.108Z,8.45
2022-11-13T06:59:08.637Z,8.55
2022-11-13T07:01:54.371Z,8.54
2022-11-13T07:04:39.739Z,8.64
2022-11-13T07:07:24.906Z,8.67
2022-11-13T07:10:10.520Z,8.92
2022-11-13T07:12:59.934Z,8.94
2022-11-13T07:15:45.036Z,9.03
2022-11-13T07:18:31.861Z,9.21
2022-11-13T07:21:17.257Z,9.31
2022-11-13T07:24:02.701Z,9.48
2022-11-13T07:26:47.904Z,9.60
2022-11-13T07:29:33.029Z,9.67
2022-11-13T07:32:18.572Z,9.78
2022-11-13T07:35:04.159Z,9.80
2022-11-13T07:37:49.161Z,9.87
2022-11-13T07:40:34.589Z,9.99
2022-11-13T07:43:20.028Z,10.17
2022-11-13T07:46:05.319Z,10.23
2022-11-13T07:48:51.037Z,10.50
2022-11-13T07:51:36.172Z,10.51
2022-11-13T07:54:21.765Z,10.62
2022-11-13T07:57:07.340Z,10.71
2022-11-13T07:59:52.917Z,11.02
2022-11-13T08:02:38.305Z,11.14
2022-11-13T08:05:23.614Z,11.18
2022-11-13T08:08:13.099Z,11.42
2022-11-13T08:10:58.361Z,11.67
2022-11-13T08:13:43.879Z,11.82
2022-11-13T08:16:29.349Z,11.74
2022-11-13T08:19:14.571Z,11.64
2022-11-13T08:21:59.957Z,11.51
2022-11-13T08:24:45.455Z,11.60
2022-11-13T08:27:31.015Z,11.79
2022-11-13T08:30:16.226Z,12.18
2022-11-13T08:33:02.690Z,12.17
2022-11-13T08:35:56.849Z,12.02
2022-11-13T08:38:41.922Z,12.13
2022-11-13T08:41:27.256Z,11.85
2022-11-13T08:44:13.499Z,12.04
2022-11-13T08:46:58.863Z,12.23
2022-11-13T08:49:44.328Z,12.02
2022-11-13T08:52:29.580Z,11.89
2022-11-13T08:55:14.964Z,11.78
2022-11-13T08:58:01.530Z,11.78
2022-11-13T09:00:47.007Z,11.72
2022-11-13T09:03:33.021Z,11.66
2022-11-13T09:06:18.622Z,11.56
2022-11-13T09:09:06.541Z,11.52
2022-11-13T09:11:51.642Z,11.56
2022-11-13T09:14:37.290Z,11.73
2022-11-13T09:17:22.868Z,11.72
2022-11-13T09:20:12.688Z,11.85
2022-11-13T09:22:59.776Z,12.02
2022-11-13T09:25:45.246Z,12.22
2022-11-13T09:28:30.653Z,12.49
2022-11-13T09:31:16.661Z,12.34
2022-11-13T09:34:04.032Z,12.37
2022-11-13T09:36:49.349Z,12.36
2022-11-13T09:39:34.739Z,12.41
2022-11-13T09:42:27.497Z,12.26
2022-11-13T10:18:18.578Z,11.54
2022-11-13T10:21:11.607Z,11.78
2022-11-13T10:23:57.586Z,11.86
2022-11-13T10:26:42.903Z,12.04
2022-11-13T10:29:29.802Z,12.12
2022-11-13T10:32:16.239Z,12.25
2022-11-13T10:35:30.095Z,12.47
2022-11-13T10:38:25.273Z,12.21
2022-11-13T10:41:13.268Z,12.18
2022-11-13T10:44:03.270Z,12.34
2022-11-13T10:46:48.969Z,12.34
2022-11-13T10:49:34.363Z,12.33
2022-11-13T10:52:29.025Z,12.37
2022-11-13T10:55:17.961Z,12.36
2022-11-13T10:58:12.100Z,12.33
2022-11-13T11:00:57.746Z,12.17
2022-11-13T11:03:50.216Z,12.03
2022-11-13T11:07:12.680Z,11.89
2022-11-13T11:09:46.916Z,11.85
2022-11-13T11:12:32.738Z,11.99
2022-11-13T11:15:24.035Z,11.92
2022-11-13T11:18:44.943Z,11.93
2022-11-13T11:21:35.123Z,11.88
2022-11-13T11:24:38.518Z,11.91
2022-11-13T11:27:41.335Z,11.87
2022-11-13T11:30:31.889Z,11.87
2022-11-13T11:33:26.074Z,11.88
2022-11-13T11:36:47.452Z,11.93
2022-11-13T11:39:40.978Z,11.91
2022-11-13T11:42:51.134Z,11.95
2022-11-13T11:45:43.594Z,12.04
2022-11-13T11:48:34.249Z,12.05
2022-11-13T11:51:25.202Z,12.10
2022-11-13T11:54:38.078Z,12.09
2022-11-13T11:57:44.381Z,12.07
2022-11-13T12:00:32.879Z,12.13
2022-11-13T12:03:36.043Z,12.14
2022-11-13T12:06:57.124Z,12.21
2022-11-13T12:10:25.913Z,12.23
2022-11-13T12:13:23.104Z,12.22
2022-11-13T12:16:25.279Z,12.28
2022-11-13T12:19:28.562Z,12.29
2022-11-13T12:22:46.662Z,12.47
2022-11-13T12:25:47.027Z,12.43
2022-11-13T12:29:04.202Z,12.56
2022-11-13T12:32:16.422Z,12.52
2022-11-13T12:35:10.670Z,12.55
2022-11-13T12:38:02.024Z,12.60
2022-11-13T12:41:04.412Z,12.81
2022-11-13T12:44:10.920Z,12.90
2022-11-13T12:47:00.886Z,12.79
2022-11-13T12:49:46.358Z,12.77
2022-11-13T12:52:32.084Z,13.03
2022-11-13T12:55:30.329Z,13.08
2022-11-13T12:58:24.127Z,13.40
2022-11-13T13:01:09.820Z,13.43
2022-11-13T13:04:10.620Z,13.62
2022-11-13T13:07:02.057Z,13.72
2022-11-13T13:10:12.182Z,13.83
2022-11-13T13:13:03.619Z,13.84
2022-11-13T13:16:02.897Z,13.59
2022-11-13T13:18:48.154Z,13.60
2022-11-13T13:21:44.633Z,13.61
2022-11-13T13:24:35.819Z,13.70
2022-11-13T13:27:27.197Z,13.61
2022-11-13T13:30:21.430Z,13.49
2022-11-13T13:33:21.739Z,13.64
2022-11-13T13:36:14.410Z,13.47
2022-11-13T13:39:02.725Z,13.40
2022-11-13T13:42:21.226Z,13.49
2022-11-13T13:45:23.842Z,13.40
2022-11-13T13:48:12.555Z,13.29
2022-11-13T13:51:00.884Z,13.37
2022-11-13T13:53:47.927Z,13.46
2022-11-13T13:56:34.597Z,13.33
2022-11-13T13:59:23.893Z,13.38
2022-11-13T14:02:19.010Z,13.45
2022-11-13T14:05:29.144Z,13.21
2022-11-13T14:08:19.975Z,13.09
2022-11-13T14:11:21.799Z,12.80
2022-11-13T14:14:11.621Z,13.13
2022-11-13T14:17:00.474Z,13.22
2022-11-13T14:19:52.649Z,13.24
2022-11-13T14:22:39.121Z,13.05
2022-11-13T14:25:27.551Z,12.75
2022-11-13T14:28:27.938Z,12.97
2022-11-13T14:31:14.907Z,12.95
2022-11-13T14:34:07.515Z,12.97
2022-11-13T14:36:52.733Z,12.96
2022-11-13T14:39:37.964Z,12.99
2022-11-13T14:42:36.674Z,12.81
2022-11-13T14:45:28.515Z,12.80
2022-11-13T14:48:21.897Z,12.89
2022-11-13T14:51:26.591Z,12.72
2022-11-13T14:55:00.194Z,12.59
2022-11-13T14:57:50.171Z,12.45
2022-11-13T15:00:38.088Z,12.59
2022-11-13T15:03:24.338Z,12.43
2022-11-13T15:06:22.490Z,12.49
2022-11-13T15:09:13.654Z,12.45
2022-11-13T15:11:59.155Z,12.57
2022-11-13T15:14:44.815Z,12.51
2022-11-13T15:17:31.297Z,12.20
2022-11-13T15:20:21.173Z,11.79
2022-11-13T15:23:11.023Z,11.61
2022-11-13T15:25:56.952Z,11.99
2022-11-13T15:28:42.492Z,11.74
2022-11-13T15:31:43.006Z,11.76
2022-11-13T15:34:28.155Z,11.49
2022-11-13T15:37:16.576Z,11.26
2022-11-13T15:40:02.129Z,11.24
2022-11-13T15:42:47.713Z,11.35
2022-11-13T15:45:33.430Z,11.26
2022-11-13T15:48:18.898Z,11.33
2022-11-13T15:51:04.843Z,11.30
2022-11-13T15:53:56.989Z,11.21
2022-11-13T15:56:44.012Z,11.13
2022-11-13T15:59:29.235Z,11.15
2022-11-13T16:02:14.755Z,11.17
2022-11-13T16:05:00.096Z,11.11
2022-11-13T16:07:45.479Z,11.11
2022-11-13T16:10:30.734Z,11.02
2022-11-13T16:13:16.047Z,10.83
2022-11-13T16:16:01.773Z,10.80
2022-11-13T16:18:47.608Z,10.81
2022-11-13T16:21:32.745Z,10.83
2022-11-13T16:24:22.631Z,10.90
2022-11-13T16:27:16.755Z,10.75
2022-11-13T16:30:06.642Z,10.65
2022-11-13T16:32:52.466Z,10.62
2022-11-13T16:35:38.976Z,10.74
2022-11-13T16:38:24.665Z,10.72
2022-11-13T16:41:16.597Z,10.81
2022-11-13T16:44:02.104Z,10.79
2022-11-13T16:46:49.784Z,10.71
2022-11-13T16:49:35.503Z,10.75
2022-11-13T16:52:21.187Z,10.68
2022-11-13T16:55:07.110Z,10.51
2022-11-13T16:57:52.431Z,10.64
2022-11-13T17:00:37.585Z,10.60
2022-11-13T17:03:23.155Z,10.72
2022-11-13T17:06:29.568Z,10.68
2022-11-13T17:09:16.005Z,10.57
2022-11-13T17:12:01.719Z,10.54
2022-11-13T17:14:47.873Z,10.41
2022-11-13T17:17:33.225Z,10.44
2022-11-13T17:20:19.535Z,10.42
2022-11-13T17:23:05.372Z,10.59
2022-11-13T17:25:50.704Z,10.65
2022-11-13T17:28:36.277Z,10.48
2022-11-13T17:31:22.038Z,10.37
2022-11-13T17:34:07.793Z,10.45
2022-11-13T17:36:54.931Z,10.25
2022-11-13T17:39:40.066Z,10.09
2022-11-13T17:42:25.692Z,10.17
2022-11-13T17:45:10.965Z,10.08
2022-11-13T17:47:56.072Z,10.06
2022-11-13T17:50:41.439Z,10.05
2022-11-13T17:53:27.347Z,10.18
2022-11-13T17:56:13.913Z,10.17
2022-11-13T17:58:59.310Z,10.02
2022-11-13T18:01:44.849Z,9.83
2022-11-13T18:04:31.494Z,9.73
2022-11-13T18:07:16.925Z,9.74
2022-11-13T18:10:02.717Z,9.73
2022-11-13T18:12:48.497Z,9.60
2022-11-13T18:15:37.285Z,8.79
2022-11-13T18:18:22.828Z,8.13
2022-11-13T18:21:22.444Z,7.73
2022-11-13T18:24:19.514Z,7.49
2022-11-13T18:27:08.398Z,7.44
2022-11-13T18:29:53.717Z,7.83
2022-11-13T18:32:39.566Z,8.07
2022-11-13T18:35:25.164Z,8.20
2022-11-13T18:38:10.751Z,8.19
2022-11-13T18:41:06.832Z,7.95
2022-11-13T18:43:52.284Z,7.89
2022-11-13T18:46:38.234Z,7.75
2022-11-13T18:49:23.720Z,8.07
2022-11-13T18:52:08.999Z,8.13
2022-11-13T18:54:54.636Z,8.24
2022-11-13T18:57:40.140Z,8.46
2022-11-13T19:00:25.548Z,8.42
2022-11-13T19:03:10.902Z,8.49
2022-11-13T19:05:56.096Z,8.23
2022-11-13T19:08:42.091Z,8.26
2022-11-13T19:11:29.252Z,7.85
2022-11-13T19:14:16.346Z,7.78
2022-11-13T19:17:01.807Z,7.77
2022-11-13T19:19:47.605Z,7.63
2022-11-13T19:22:32.957Z,7.72
2022-11-13T19:25:18.478Z,7.80
2022-11-13T19:28:04.032Z,7.80
2022-11-13T19:30:49.238Z,7.75
2022-11-13T19:33:35.120Z,7.82
2022-11-13T19:36:21.712Z,7.91
2022-11-13T19:39:09.832Z,7.96
2022-11-13T19:41:55.536Z,8.08
2022-11-13T19:44:40.799Z,8.22
2022-11-13T19:47:26.272Z,8.35
2022-11-13T19:50:11.718Z,8.42
2022-11-13T19:52:56.976Z,8.47
2022-11-13T19:55:43.139Z,8.54
2022-11-13T19:58:29.621Z,8.64
2022-11-13T20:01:18.551Z,8.64
2022-11-13T20:04:05.425Z,8.50
2022-11-13T20:06:51.164Z,8.46
2022-11-13T20:09:37.270Z,8.45
2022-11-13T20:12:24.022Z,8.42
2022-11-13T20:15:09.763Z,8.36
2022-11-13T20:17:55.426Z,8.34
2022-11-13T20:20:44.058Z,8.40
2022-11-13T20:23:29.622Z,8.50
2022-11-13T20:26:16.814Z,8.54
2022-11-13T20:29:02.207Z,8.53
2022-11-13T20:31:47.783Z,8.55
2022-11-13T20:34:33.515Z,8.36
2022-11-13T20:37:18.994Z,8.24
2022-11-13T20:40:04.758Z,8.36
2022-11-13T20:42:50.425Z,7.72
2022-11-13T20:45:35.794Z,7.12
2022-11-13T20:48:21.234Z,6.76
2022-11-13T20:51:06.440Z,6.37
2022-11-13T20:53:52.303Z,6.20
2022-11-13T20:56:37.590Z,6.02
2022-11-13T20:59:23.066Z,5.81
2022-11-13T21:02:12.660Z,5.92
2022-11-13T21:05:01.066Z,5.81
2022-11-13T21:07:46.416Z,5.78
2022-11-13T21:10:33.847Z,5.73
2022-11-13T21:13:19.517Z,5.75
2022-11-13T21:16:09.997Z,5.86
2022-11-13T21:18:59.764Z,5.90
2022-11-13T21:21:44.964Z,5.84
2022-11-13T21:24:30.639Z,5.90
2022-11-13T21:27:15.892Z,5.90
2022-11-13T21:30:01.509Z,5.97
2022-11-13T21:32:46.745Z,6.05
2022-11-13T21:35:32.334Z,6.09
2022-11-13T21:38:17.790Z,6.28
2022-11-13T21:41:24.903Z,6.30
2022-11-13T21:44:11.298Z,6.24
2022-11-13T21:46:56.894Z,6.26
2022-11-13T21:49:42.967Z,6.14
2022-11-13T21:52:28.726Z,6.05
2022-11-13T21:55:14.720Z,5.93
2022-11-13T21:57:59.793Z,5.97
2022-11-13T22:00:45.343Z,5.92
2022-11-13T22:03:31.731Z,5.91
2022-11-13T22:06:31.612Z,5.90
2022-11-13T22:09:25.625Z,5.79
2022-11-13T22:12:11.186Z,5.82
2022-11-13T22:14:56.332Z,5.87
2022-11-13T22:17:42.642Z,5.98
2022-11-13T22:20:27.949Z,6.08
2022-11-13T22:23:13.223Z,6.04
2022-11-13T22:26:02.442Z,5.84
2022-11-13T22:28:48.919Z,5.83
2022-11-13T22:31:35.489Z,5.86
2022-11-13T22:34:21.442Z,5.90
2022-11-13T22:37:06.956Z,5.93
2022-11-13T22:39:52.371Z,5.91
2022-11-13T22:42:37.791Z,6.05
2022-11-13T22:45:24.222Z,6.04
2022-11-13T22:48:11.357Z,6.05
2022-11-13T22:51:01.703Z,6.11
2022-11-13T22:53:52.346Z,6.10
2022-11-13T22:56:39.861Z,5.94
2022-11-13T22:59:25.467Z,5.82
2022-11-13T23:02:11.017Z,5.61
2022-11-13T23:04:56.556Z,5.30
2022-11-13T23:07:41.799Z,5.01
2022-11-13T23:10:26.934Z,4.74
2022-11-13T23:13:12.389Z,4.55
2022-11-13T23:15:57.953Z,4.57
2022-11-13T23:18:43.601Z,4.57
2022-11-13T23:21:30.203Z,4.72
2022-11-13T23:24:15.553Z,4.94
2022-11-13T23:27:01.560Z,5.04
2022-11-13T23:29:50.127Z,5.13
2022-11-13T23:32:35.735Z,5.19
2022-11-13T23:35:21.591Z,5.21
2022-11-13T23:38:06.954Z,5.16
2022-11-13T23:40:56.411Z,5.20
2022-11-13T23:46:47.508Z,5.46
2022-11-13T23:49:33.036Z,5.49
2022-11-13T23:52:18.330Z,5.53
2022-11-13T23:55:04.015Z,5.37
2022-11-13T23:57:56.855Z,5.36
